• Join FlightAware (Why Join?)
  • Login
  • US Flag 
02:41PM EDT


 

Airport Tracker/Info


-or-


 

Live Flight TrackerFlight Track Log ✈ N98BM ✈ 19-May-2013 ✈ KCGF - KHLG

Flight Track Log - Related Links

Times and Time Zones

All times are in EDT time to prevent confusion due to time zone crossing. See the N98BM flight status page for this flight to view local times or setup timezone preferences in your user account.

Time Position Orientation Groundspeed Altitude Reporting Facility
EDT Latitude Longitude Course Direction KTS MPH feet Rate Location/Type
06:08PM 41.5772 -81.4631 85° East 189 217 1,500  Level Cleveland Center
06:10PM 41.5842 -81.3522 85° East 261 300 4,700 1,800 Climbing Cleveland Center
06:11PM 41.5114 -81.3292 167° South 249 287 5,900 780 Climbing Cleveland Center
06:12PM 41.4425 -81.3339 183° South 275 316 6,400 1,440 Climbing Cleveland Center
06:13PM 41.3633 -81.3356 181° South 275 316 8,900 2,280 Climbing Cleveland Center
06:14PM 41.2864 -81.2989 160° South 280 322 11,000 1,020 Climbing Cleveland Center
06:15PM 41.1889 -81.2481 159° South 317 365 11,000  Level Cleveland Center
06:16PM 41.0892 -81.1919 157° South 369 425 11,100  Climbing Cleveland Center
06:17PM 40.9872 -81.1306 156° South 396 456 11,100 -300 Level Cleveland Center
06:18PM 40.8958 -81.0775 156° South 387 445 10,500 -1,320 Descending Cleveland Center
06:19PM 40.8189 -81.0247 153° Southeast 331 381 8,600 -2,100 Descending Cleveland Center
06:20PM 40.7439 -80.9833 157° South 309 356 6,300 -1,800 Descending Cleveland Center
06:21PM 40.6733 -80.9417 156° South 297 342 5,000 -660 Descending Cleveland Center
06:22PM 40.6067 -80.9003 155° Southeast 278 320 5,000  Level Cleveland Center
06:23PM 40.5422 -80.8536 151° Southeast 273 314 5,000 -240 Level Cleveland Center
06:24PM 40.4756 -80.8122 155° Southeast 268 308 4,600 -600 Descending Cleveland Center
06:25PM 40.4089 -80.7686 154° Southeast 268 308 3,800 -720 Descending Cleveland Center
06:26PM 40.3486 -80.7303 154° Southeast 256 295 3,200 -600 Descending Cleveland Center
06:28PM 40.2233 -80.6657 156° South  Level FlightAware Approximate
06:35PM 40.1750 -80.6463 156° South  Level Estimated
06:36PM 40.1750 -80.6463 156° South  Level Estimated
06:37PM 40.1750 -80.6463 156° South  Level Estimated
06:38PM 40.1750 -80.6463 156° South  Level Estimated